Time;durP1;ratioP1;P1;durP2;ratioP2;P2;SDS_P1;SDS_P2;PMS_P1;PMS_P2;Temp;Humidity;BMP_temperature;BMP_pressure;BME280_temperature;BME280_humidity;BME280_pressure;Samples;Min_cycle;Max_cycle;Signal;HPM_P1;HPM_P2
2023/11/05 13:21:59;;;;;;;;;;;;;;;19.16;57.51;97408.19;5047770;28;2364;-74
2023/11/05 13:24:25;;;;;;;;;;;;;;;19.23;57.48;97421.06;5047950;28;2156;-75
2023/11/05 13:26:51;;;;;;;;;;;;;;;19.23;57.09;97418.19;5048747;28;2090;-83
2023/11/05 13:29:18;;;;;;;;;;;;;;;19.29;57.08;97428.94;5049289;28;2140;-74
2023/11/05 13:31:44;;;;;;;;;;;;;;;19.15;56.60;97423.97;5039465;28;6350;-74
2023/11/05 13:34:13;;;;;;;;;;;;;;;19.20;56.04;97433.28;5038846;28;2478;-76
2023/11/05 13:36:40;;;;;;;;;;;;;;;19.24;56.62;97428.25;5036503;28;2151;-76
2023/11/05 13:39:11;;;;;;;;;;;;;;;19.32;57.37;97438.25;5035348;28;2145;-75
2023/11/05 13:41:37;;;;;;;;;;;;;;;19.69;57.34;97432.38;5037935;28;2421;-73
2023/11/05 13:44:05;;;;;;;;;;;;;;;19.52;55.97;97434.59;5039013;28;2083;-76
2023/11/05 13:46:31;;;;;;;;;;;;;;;19.45;55.62;97436.78;5035982;28;2143;-76
2023/11/05 13:48:59;;;;;;;;;;;;;;;19.40;55.63;97441.81;5035359;28;2177;-69
2023/11/05 13:51:26;;;;;;;;;;;;;;;19.38;56.13;97444.69;5034510;28;2078;-74
2023/11/05 13:53:53;;;;;;;;;;;;;;;19.37;57.58;97442.53;5034888;28;2056;-68
2023/11/05 13:56:20;;;;;;;;;;;;;;;19.75;59.29;97443.81;5022607;28;4095;-66
2023/11/05 13:58:47;;;;;;;;;;;;;;;19.99;58.78;97442.94;5028231;28;3643;-68
2023/11/05 14:01:17;;;;;;;;;;;;;;;19.62;56.06;97440.25;5027476;28;6273;-67
2023/11/05 14:03:44;;;;;;;;;;;;;;;19.64;56.43;97457.47;5032840;28;2357;-69
2023/11/05 14:06:11;;;;;;;;;;;;;;;19.71;56.49;97449.59;5035160;28;2918;-68
2023/11/05 14:08:38;;;;;;;;;;;;;;;19.65;56.62;97465.38;5033157;28;2378;-67
2023/11/05 14:11:07;;;;;;;;;;;;;;;19.57;56.63;97468.28;5031309;28;2185;-68
2023/11/05 14:13:36;;;;;;;;;;;;;;;19.91;59.64;97455.22;5028356;28;2838;-67
2023/11/05 14:16:03;;;;;;;;;;;;;;;20.13;57.35;97462.25;5035122;28;2001;-67
2023/11/05 14:18:29;;;;;;;;;;;;;;;20.30;56.66;97475.06;5035073;28;2021;-67
2023/11/05 14:20:56;;;;;;;;;;;;;;;20.36;56.55;97471.41;5036281;28;1972;-66
2023/11/05 14:23:22;;;;;;;;;;;;;;;20.37;55.85;97473.56;5028385;28;4232;-67
2023/11/05 14:25:49;;;;;;;;;;;;;;;20.33;55.84;97479.34;5034471;28;3511;-70
2023/11/05 14:28:15;;;;;;;;;;;;;;;20.34;55.55;97485.78;5034481;28;2512;-70
2023/11/05 14:30:42;;;;;;;;;;;;;;;20.39;55.59;97498.69;5025579;28;6340;-70
2023/11/05 14:33:08;;;;;;;;;;;;;;;20.37;55.15;97490.81;5020314;28;2316;-73
2023/11/05 14:35:35;;;;;;;;;;;;;;;20.36;55.21;97495.09;5023219;28;1676;-68
2023/11/05 14:38:01;;;;;;;;;;;;;;;20.38;55.23;97497.97;5020403;28;2072;-71
2023/11/05 14:40:29;;;;;;;;;;;;;;;20.31;54.78;97496.59;5021957;28;1918;-70
2023/11/05 14:42:56;;;;;;;;;;;;;;;20.40;55.05;97500.13;5024045;28;2132;-70
2023/11/05 14:45:22;;;;;;;;;;;;;;;20.43;55.13;97505.13;5023434;28;2196;-71
2023/11/05 14:47:53;;;;;;;;;;;;;;;20.34;54.65;97508.78;5022624;28;1595;-70
2023/11/05 14:50:21;;;;;;;;;;;;;;;20.06;54.95;97522.59;5024103;28;1809;-70
2023/11/05 14:52:48;;;;;;;;;;;;;;;19.97;55.11;97520.50;5021741;28;1922;-70
2023/11/05 14:55:15;;;;;;;;;;;;;;;19.92;55.22;97519.78;5038857;28;1643;-70
2023/11/05 14:57:41;;;;;;;;;;;;;;;19.87;55.66;97527.00;5019175;28;2209;-72
2023/11/05 15:00:11;;;;;;;;;;;;;;;19.93;55.66;97526.25;5015722;28;6093;-69
2023/11/05 15:02:39;;;;;;;;;;;;;;;19.87;55.49;97529.88;5016667;28;2134;-69
2023/11/05 15:05:08;;;;;;;;;;;;;;;19.84;55.23;97526.28;5018169;28;2136;-70
2023/11/05 15:07:34;;;;;;;;;;;;;;;19.82;55.60;97534.91;5018848;28;2130;-69
2023/11/05 15:10:01;;;;;;;;;;;;;;;19.81;55.64;97539.25;5022126;28;2110;-70
2023/11/05 15:12:27;;;;;;;;;;;;;;;19.84;55.61;97543.53;5020338;28;2055;-71
2023/11/05 15:14:54;;;;;;;;;;;;;;;19.83;55.70;97539.22;5023357;28;2243;-71
2023/11/05 15:17:20;;;;;;;;;;;;;;;19.82;55.80;97554.31;5019224;28;2824;-70
2023/11/05 15:19:47;;;;;;;;;;;;;;;19.83;55.80;97558.59;5020465;28;2549;-70
2023/11/05 15:22:14;;;;;;;;;;;;;;;19.81;55.90;97564.34;5020793;28;2044;-69
2023/11/05 15:24:41;;;;;;;;;;;;;;;19.83;55.70;97558.59;5020939;28;1789;-69
2023/11/05 15:27:07;;;;;;;;;;;;;;;19.92;55.80;97571.47;5019718;28;2195;-71
2023/11/05 15:29:34;;;;;;;;;;;;;;;20.16;55.62;97564.19;5023115;28;2499;-72
2023/11/05 15:32:06;;;;;;;;;;;;;;;20.30;55.50;97575.59;5016022;28;6094;-79
2023/11/05 15:34:34;;;;;;;;;;;;;;;20.33;55.54;97570.56;5021396;28;4171;-74
2023/11/05 15:37:01;;;;;;;;;;;;;;;20.31;55.33;97574.16;5021486;28;4074;-82
2023/11/05 15:39:27;;;;;;;;;;;;;;;20.33;55.14;97576.31;5020249;28;2241;-80
2023/11/05 15:41:53;;;;;;;;;;;;;;;20.35;55.41;97584.91;5025600;28;2574;-76
2023/11/05 15:44:20;;;;;;;;;;;;;;;20.36;55.23;97586.34;5023340;28;2234;-77
2023/11/05 15:46:47;;;;;;;;;;;;;;;20.34;55.27;97583.47;5023793;28;2444;-79
2023/11/05 15:49:14;;;;;;;;;;;;;;;20.34;55.13;97595.72;5019509;28;2131;-77
2023/11/05 15:51:40;;;;;;;;;;;;;;;20.22;55.49;97599.34;5021186;28;2410;-82
2023/11/05 15:54:07;;;;;;;;;;;;;;;20.14;55.51;97595.81;5014754;28;2466;-78
2023/11/05 15:56:37;;;;;;;;;;;;;;;20.08;55.48;97605.16;5018254;28;2263;-79
2023/11/05 15:59:03;;;;;;;;;;;;;;;19.99;55.63;97598.72;5018352;28;2260;-78
2023/11/05 16:01:30;;;;;;;;;;;;;;;20.02;55.38;97610.91;5016412;28;6276;-79
2023/11/05 16:03:56;;;;;;;;;;;;;;;20.02;55.45;97608.78;5019216;28;2382;-78
2023/11/05 16:06:24;;;;;;;;;;;;;;;19.99;55.55;97615.25;5016758;28;2243;-79
2023/11/05 16:08:50;;;;;;;;;;;;;;;19.95;55.75;97618.13;5020822;28;2010;-79
2023/11/05 16:11:17;;;;;;;;;;;;;;;19.87;56.06;97616.00;5012926;28;4211;-78
2023/11/05 16:13:43;;;;;;;;;;;;;;;19.99;55.83;97627.44;5017028;28;2302;-82
2023/11/05 16:16:09;;;;;;;;;;;;;;;19.99;55.72;97633.19;5015450;28;2802;-83
2023/11/05 16:18:36;;;;;;;;;;;;;;;19.97;55.89;97635.34;5016467;28;2288;-83
2023/11/05 16:21:03;;;;;;;;;;;;;;;19.94;55.87;97640.38;5017975;28;2397;-83
2023/11/05 16:23:29;;;;;;;;;;;;;;;19.93;55.99;97646.84;5014881;28;2443;-81
2023/11/05 16:25:55;;;;;;;;;;;;;;;19.92;56.11;97651.88;5015295;28;4392;-83
2023/11/05 16:28:24;;;;;;;;;;;;;;;19.92;55.87;97656.91;5017997;28;2431;-83
2023/11/05 16:30:50;;;;;;;;;;;;;;;19.91;56.19;97664.81;5013907;28;6207;-81
2023/11/05 16:33:17;;;;;;;;;;;;;;;19.90;56.22;97662.66;5014961;28;2781;-82
2023/11/05 16:35:45;;;;;;;;;;;;;;;19.90;56.19;97666.22;5013372;28;2578;-83
2023/11/05 16:38:11;;;;;;;;;;;;;;;19.89;56.33;97673.41;5013957;28;4109;-83
2023/11/05 16:40:40;;;;;;;;;;;;;;;19.90;56.11;97671.25;5012535;28;2393;-82
2023/11/05 16:43:07;;;;;;;;;;;;;;;19.90;56.17;97674.84;5014980;28;4143;-83
2023/11/05 16:45:33;;;;;;;;;;;;;;;19.87;56.36;97682.75;5015650;28;2245;-81
2023/11/05 16:48:00;;;;;;;;;;;;;;;19.86;56.24;97680.63;5019201;28;2393;-83
2023/11/05 16:50:26;;;;;;;;;;;;;;;19.85;56.36;97688.50;5018380;28;2344;-81
2023/11/05 16:52:53;;;;;;;;;;;;;;;19.87;56.48;97694.22;5015877;28;2367;-82
2023/11/05 16:55:20;;;;;;;;;;;;;;;19.87;56.48;97702.13;5012746;28;3064;-83
2023/11/05 16:57:47;;;;;;;;;;;;;;;19.86;56.47;97709.31;5024015;28;3315;-78
2023/11/05 17:00:16;;;;;;;;;;;;;;;19.86;56.46;97715.06;5018986;28;6219;-78
2023/11/05 17:02:42;;;;;;;;;;;;;;;19.85;56.53;97710.75;5020015;28;2147;-78
2023/11/05 17:05:11;;;;;;;;;;;;;;;19.86;56.47;97712.91;5017112;28;2204;-77
2023/11/05 17:07:38;;;;;;;;;;;;;;;19.85;56.52;97716.50;5018527;28;2111;-78
2023/11/05 17:10:05;;;;;;;;;;;;;;;19.85;56.68;97722.94;5017483;28;2159;-78
2023/11/05 17:12:32;;;;;;;;;;;;;;;19.85;56.76;97722.22;5018738;28;2119;-80
2023/11/05 17:15:07;;;;;;;;;;;;;;;19.84;56.54;97733.00;5019672;28;2143;-78
2023/11/05 17:17:38;;;;;;;;;;;;;;;19.85;56.47;97733.72;5013408;28;2229;-79
2023/11/05 17:20:05;;;;;;;;;;;;;;;19.86;56.75;97743.78;5017311;28;2506;-81
2023/11/05 17:22:32;;;;;;;;;;;;;;;19.85;56.66;97756.69;4998294;28;2158;-88
2023/11/05 17:24:58;;;;;;;;;;;;;;;19.72;56.51;97755.97;5014631;28;3468;-82
2023/11/05 17:27:25;;;;;;;;;;;;;;;19.54;55.97;97753.81;5014529;28;2166;-82
2023/11/05 17:29:52;;;;;;;;;;;;;;;19.52;56.00;97756.66;5007838;28;4201;-81
2023/11/05 17:32:19;;;;;;;;;;;;;;;19.59;56.45;97754.53;5012058;28;6512;-77
2023/11/05 17:34:47;;;;;;;;;;;;;;;19.63;56.56;97766.72;5016698;28;2478;-78
2023/11/05 17:37:14;;;;;;;;;;;;;;;19.79;57.19;97768.16;5013951;28;2360;-76
2023/11/05 17:39:40;;;;;;;;;;;;;;;19.84;56.63;97778.22;5016945;28;2370;-68
2023/11/05 17:42:07;;;;;;;;;;;;;;;19.80;56.83;97783.97;5016126;28;2320;-68
2023/11/05 17:44:34;;;;;;;;;;;;;;;19.79;57.13;97785.38;5016668;28;2247;-70
2023/11/05 17:47:00;;;;;;;;;;;;;;;19.77;56.92;97791.13;5015457;28;2300;-68
2023/11/05 17:49:27;;;;;;;;;;;;;;;19.78;56.98;97798.31;5017901;28;2311;-68
2023/11/05 17:51:53;;;;;;;;;;;;;;;19.75;56.90;97806.22;5017508;28;2235;-68
2023/11/05 17:54:20;;;;;;;;;;;;;;;19.73;57.14;97814.09;5016188;28;2307;-68
2023/11/05 17:56:47;;;;;;;;;;;;;;;19.84;57.15;97812.69;5017458;28;2265;-77
2023/11/05 17:59:13;;;;;;;;;;;;;;;19.81;56.87;97819.84;5020453;28;2366;-69
2023/11/05 18:01:39;;;;;;;;;;;;;;;19.81;56.87;97819.84;5014027;28;6537;-69
2023/11/05 18:04:06;;;;;;;;;;;;;;;19.81;56.95;97825.56;5014214;28;2284;-69
2023/11/05 18:06:39;;;;;;;;;;;;;;;19.80;56.83;97829.91;5015689;28;2282;-69
2023/11/05 18:09:05;;;;;;;;;;;;;;;19.80;56.90;97841.38;5021478;28;2192;-68
2023/11/05 18:11:32;;;;;;;;;;;;;;;19.81;57.12;97842.81;5022587;28;2181;-69
2023/11/05 18:13:59;;;;;;;;;;;;;;;19.80;56.97;97833.47;5022491;28;2209;-69
2023/11/05 18:16:25;;;;;;;;;;;;;;;19.81;57.00;97846.41;5020226;28;2216;-69
2023/11/05 18:18:52;;;;;;;;;;;;;;;19.80;57.28;97847.84;5020697;28;2243;-68
2023/11/05 18:21:18;;;;;;;;;;;;;;;19.85;57.10;97848.56;5021115;28;1992;-68
2023/11/05 18:23:44;;;;;;;;;;;;;;;19.84;57.50;97858.63;5021275;28;1635;-68
2023/11/05 18:26:11;;;;;;;;;;;;;;;19.84;57.24;97858.63;5019392;28;2276;-68
2023/11/05 18:28:37;;;;;;;;;;;;;;;19.82;57.39;97870.81;5019898;28;2333;-68
2023/11/05 18:31:04;;;;;;;;;;;;;;;19.82;57.58;97878.72;5023306;28;6036;-69
2023/11/05 18:33:30;;;;;;;;;;;;;;;19.82;57.46;97873.69;5017481;28;2343;-69
2023/11/05 18:35:57;;;;;;;;;;;;;;;19.82;57.60;97878.72;5017833;28;2350;-68
2023/11/05 18:38:23;;;;;;;;;;;;;;;19.82;57.44;97878.72;5015749;28;2267;-69
2023/11/05 18:40:49;;;;;;;;;;;;;;;19.83;57.48;97888.75;5017313;28;2266;-68
2023/11/05 18:43:16;;;;;;;;;;;;;;;19.74;58.05;97899.50;5018297;28;2256;-71
2023/11/05 18:45:42;;;;;;;;;;;;;;;19.79;58.49;97897.34;5014135;28;2235;-68
2023/11/05 18:48:09;;;;;;;;;;;;;;;19.81;58.46;97898.09;5016979;28;2700;-68
2023/11/05 18:50:36;;;;;;;;;;;;;;;19.79;58.20;97897.34;5016934;28;2354;-68
2023/11/05 18:53:03;;;;;;;;;;;;;;;19.74;58.12;97899.50;5017170;28;2443;-71
2023/11/05 18:55:30;;;;;;;;;;;;;;;19.72;58.31;97899.47;5017378;28;2395;-69
2023/11/05 18:57:57;;;;;;;;;;;;;;;19.78;58.08;97902.38;5018572;28;2371;-69
2023/11/05 19:00:23;;;;;;;;;;;;;;;19.80;58.10;97910.28;5016638;28;6101;-69
2023/11/05 19:02:50;;;;;;;;;;;;;;;19.80;58.42;97893.06;5016332;28;2346;-69
2023/11/05 19:05:16;;;;;;;;;;;;;;;19.80;58.74;97908.13;5016544;28;2331;-68
2023/11/05 19:07:44;;;;;;;;;;;;;;;19.79;58.58;97915.31;5018727;28;2287;-69
2023/11/05 19:10:11;;;;;;;;;;;;;;;19.78;58.33;97924.63;5017464;28;2323;-70
2023/11/05 19:12:38;;;;;;;;;;;;;;;19.79;58.55;97920.31;5018542;28;2087;-69
2023/11/05 19:15:05;;;;;;;;;;;;;;;19.79;58.39;97926.06;5017956;28;2482;-69
2023/11/05 19:17:32;;;;;;;;;;;;;;;19.78;58.44;97939.00;5017126;28;2334;-69
2023/11/05 19:19:58;;;;;;;;;;;;;;;19.77;58.75;97943.28;5015072;28;2362;-68
2023/11/05 19:22:25;;;;;;;;;;;;;;;19.77;58.64;97949.00;5015692;28;2271;-68
2023/11/05 19:24:51;;;;;;;;;;;;;;;19.77;58.63;97964.09;5016812;28;2200;-69
2023/11/05 19:27:17;;;;;;;;;;;;;;;19.76;58.70;97965.53;5015758;28;2339;-69
2023/11/05 19:29:44;;;;;;;;;;;;;;;19.75;58.86;97972.00;5015935;28;2308;-69
2023/11/05 19:32:10;;;;;;;;;;;;;;;19.74;58.83;97970.56;5037776;28;6617;-67
2023/11/05 19:34:37;;;;;;;;;;;;;;;19.74;58.67;97982.03;5036013;28;2273;-71
2023/11/05 19:37:04;;;;;;;;;;;;;;;19.74;58.76;97999.97;5035686;28;2356;-74
2023/11/05 19:39:30;;;;;;;;;;;;;;;19.75;58.80;98000.72;5035985;28;2267;-73
2023/11/05 19:41:56;;;;;;;;;;;;;;;19.75;58.69;98000.72;5035640;28;2208;-73
2023/11/05 19:44:23;;;;;;;;;;;;;;;19.75;58.75;98017.94;5038790;28;2329;-73
2023/11/05 19:46:52;;;;;;;;;;;;;;;19.76;58.30;98016.50;5035719;28;2167;-74
2023/11/05 19:49:19;;;;;;;;;;;;;;;19.77;58.54;98020.78;5033865;28;2267;-74
2023/11/05 19:51:47;;;;;;;;;;;;;;;19.77;58.39;98032.28;5036747;28;2215;-73
2023/11/05 19:54:14;;;;;;;;;;;;;;;19.78;58.73;98045.22;5035455;28;2325;-74
2023/11/05 19:56:40;;;;;;;;;;;;;;;19.77;58.77;98043.75;5035538;28;2238;-74
2023/11/05 19:59:07;;;;;;;;;;;;;;;19.78;58.73;98056.69;5038928;28;2385;-74
2023/11/05 20:01:33;;;;;;;;;;;;;;;19.78;59.15;98062.44;5037323;28;6243;-74
2023/11/05 20:04:01;;;;;;;;;;;;;;;19.77;59.09;98061.72;5035745;28;2371;-74
2023/11/05 20:06:28;;;;;;;;;;;;;;;19.77;59.13;98058.09;5038161;28;2219;-74
2023/11/05 20:08:55;;;;;;;;;;;;;;;19.78;59.07;98062.44;5036204;28;2189;-74
2023/11/05 20:11:21;;;;;;;;;;;;;;;19.76;58.98;98063.13;5035919;28;2659;-74
2023/11/05 20:13:48;;;;;;;;;;;;;;;19.77;58.95;98078.19;5038113;28;2532;-74
2023/11/05 20:16:16;;;;;;;;;;;;;;;19.76;59.25;98079.66;5035694;28;2321;-74
2023/11/05 20:18:43;;;;;;;;;;;;;;;19.74;59.38;98086.09;5035196;28;2319;-74
2023/11/05 20:21:10;;;;;;;;;;;;;;;19.75;59.29;98092.56;5034738;28;2292;-74
2023/11/05 20:23:36;;;;;;;;;;;;;;;19.75;59.24;98099.03;5035642;28;2210;-74
2023/11/05 20:26:03;;;;;;;;;;;;;;;19.76;59.48;98108.34;5043329;28;2172;-75
2023/11/05 20:28:29;;;;;;;;;;;;;;;19.75;59.18;98112.66;5034486;28;2352;-74
2023/11/05 20:31:03;;;;;;;;;;;;;;;19.76;59.59;98132.03;5033805;28;6061;-74
2023/11/05 20:33:30;;;;;;;;;;;;;;;19.77;59.07;98118.41;5037579;28;2267;-74
2023/11/05 20:35:56;;;;;;;;;;;;;;;19.78;59.39;98119.84;5034412;28;2333;-74
2023/11/05 20:38:23;;;;;;;;;;;;;;;19.79;59.32;98135.63;5037369;28;2137;-75
2023/11/05 20:40:49;;;;;;;;;;;;;;;19.77;59.35;98141.38;5033243;28;2164;-75
2023/11/05 20:43:15;;;;;;;;;;;;;;;19.77;59.64;98149.97;5038438;28;1910;-74
2023/11/05 20:45:42;;;;;;;;;;;;;;;19.78;59.50;98160.03;5035015;28;2307;-74
2023/11/05 20:48:08;;;;;;;;;;;;;;;19.77;59.67;98164.34;5035478;28;2247;-77
2023/11/05 20:50:36;;;;;;;;;;;;;;;19.75;59.66;98165.06;5034489;28;2448;-74
2023/11/05 20:53:02;;;;;;;;;;;;;;;19.76;59.74;98174.38;5035525;28;2165;-74
2023/11/05 20:55:34;;;;;;;;;;;;;;;19.75;59.82;98172.97;5036133;28;2123;-74
2023/11/05 20:58:03;;;;;;;;;;;;;;;19.74;59.67;98183.69;5036131;28;2219;-76
2023/11/05 21:00:31;;;;;;;;;;;;;;;19.74;59.50;98180.13;5036447;28;6546;-73
2023/11/05 21:02:57;;;;;;;;;;;;;;;19.74;59.88;98188.72;5035252;28;2328;-73
2023/11/05 21:05:24;;;;;;;;;;;;;;;19.75;60.00;98196.63;5037376;28;2101;-73
2023/11/05 21:07:51;;;;;;;;;;;;;;;19.74;59.64;98200.22;5035329;28;2268;-74
2023/11/05 21:10:17;;;;;;;;;;;;;;;19.75;59.72;98195.94;5040186;28;2199;-74
2023/11/05 21:12:44;;;;;;;;;;;;;;;19.75;59.87;98213.16;5033657;28;2207;-74
2023/11/05 21:15:11;;;;;;;;;;;;;;;19.76;59.88;98215.28;5035117;28;2188;-74
2023/11/05 21:17:37;;;;;;;;;;;;;;;19.76;59.96;98220.31;5035306;28;2242;-74
2023/11/05 21:20:04;;;;;;;;;;;;;;;19.76;60.22;98226.06;5030506;28;2408;-74
2023/11/05 21:22:31;;;;;;;;;;;;;;;19.76;60.17;98232.53;5036858;28;2278;-74
2023/11/05 21:24:57;;;;;;;;;;;;;;;19.77;60.30;98227.50;5037511;28;2305;-74
2023/11/05 21:27:24;;;;;;;;;;;;;;;19.78;60.19;98243.31;5035534;28;2227;-73
2023/11/05 21:29:50;;;;;;;;;;;;;;;19.77;60.41;98251.22;5035761;28;2331;-74
2023/11/05 21:32:16;;;;;;;;;;;;;;;19.78;60.34;98251.91;5034363;28;6089;-75
2023/11/05 21:34:43;;;;;;;;;;;;;;;19.76;60.31;98263.38;5039270;28;1765;-75
2023/11/05 21:37:10;;;;;;;;;;;;;;;19.76;60.50;98266.97;5038336;28;2200;-74
2023/11/05 21:39:39;;;;;;;;;;;;;;;19.76;60.44;98266.25;5035722;28;2258;-74
2023/11/05 21:42:05;;;;;;;;;;;;;;;19.77;60.44;98279.19;5036668;28;2262;-74
2023/11/05 21:44:32;;;;;;;;;;;;;;;19.76;60.57;98277.75;5039284;28;2249;-75
2023/11/05 21:47:01;;;;;;;;;;;;;;;19.75;60.54;98293.53;5041855;28;2214;-74
2023/11/05 21:49:27;;;;;;;;;;;;;;;19.75;60.36;98300.00;5044910;28;1956;-74
2023/11/05 21:51:54;;;;;;;;;;;;;;;19.74;60.52;98298.53;5042511;28;2415;-74
2023/11/05 21:54:20;;;;;;;;;;;;;;;19.76;60.61;98317.94;5041381;28;2204;-74
2023/11/05 21:56:47;;;;;;;;;;;;;;;19.74;60.62;98309.31;5044437;28;2358;-74
2023/11/05 21:59:13;;;;;;;;;;;;;;;19.75;60.64;98322.25;5056616;28;2240;-75
2023/11/05 22:01:39;;;;;;;;;;;;;;;19.73;60.78;98322.94;5040348;28;6143;-74
2023/11/05 22:04:06;;;;;;;;;;;;;;;19.73;60.64;98325.09;5041385;28;2283;-73
2023/11/05 22:06:33;;;;;;;;;;;;;;;19.72;60.63;98329.38;5044199;28;2312;-74
2023/11/05 22:08:59;;;;;;;;;;;;;;;19.73;60.77;98336.59;5042696;28;2200;-74
2023/11/05 22:11:25;;;;;;;;;;;;;;;19.71;60.41;98345.19;5041397;28;2247;-74
2023/11/05 22:13:52;;;;;;;;;;;;;;;19.72;60.64;98352.34;5042797;28;2247;-74
2023/11/05 22:16:19;;;;;;;;;;;;;;;19.70;60.98;98358.81;5056917;28;2183;-74
2023/11/05 22:18:46;;;;;;;;;;;;;;;19.71;60.66;98356.66;5040850;28;2478;-74
2023/11/05 22:21:13;;;;;;;;;;;;;;;19.71;60.92;98365.28;5046092;28;2393;-74
2023/11/05 22:23:39;;;;;;;;;;;;;;;19.70;60.68;98369.56;5039581;28;2284;-74
2023/11/05 22:26:06;;;;;;;;;;;;;;;19.72;60.75;98372.44;5042040;28;2193;-76
2023/11/05 22:28:32;;;;;;;;;;;;;;;19.71;60.53;98379.63;5040533;28;2459;-76
2023/11/05 22:30:59;;;;;;;;;;;;;;;19.70;60.84;98378.16;5039894;28;6184;-76
2023/11/05 22:33:25;;;;;;;;;;;;;;;19.70;60.72;98386.78;5041008;28;2231;-75
2023/11/05 22:35:52;;;;;;;;;;;;;;;19.70;61.03;98390.38;5046561;28;2226;-75
2023/11/05 22:38:18;;;;;;;;;;;;;;;19.69;61.02;98386.06;5040082;28;2753;-75
2023/11/05 22:40:45;;;;;;;;;;;;;;;19.69;60.69;98405.44;5041246;28;2222;-76
2023/11/05 22:43:11;;;;;;;;;;;;;;;19.69;60.74;98411.19;5041411;28;2350;-75
2023/11/05 22:45:38;;;;;;;;;;;;;;;19.67;60.76;98426.19;5042704;28;1600;-75
2023/11/05 22:48:05;;;;;;;;;;;;;;;19.66;60.77;98408.25;5038817;28;2188;-75
2023/11/05 22:50:32;;;;;;;;;;;;;;;19.67;60.87;98420.47;5041920;28;2353;-75
2023/11/05 22:52:59;;;;;;;;;;;;;;;19.65;61.05;98412.56;5037265;28;2428;-76
2023/11/05 22:55:25;;;;;;;;;;;;;;;19.65;61.02;98426.91;5038241;28;2793;-75
2023/11/05 22:57:51;;;;;;;;;;;;;;;19.65;60.83;98432.66;5040957;28;2164;-75
2023/11/05 23:00:28;;;;;;;;;;;;;;;19.64;61.04;98439.81;5037614;28;6262;-75
2023/11/05 23:02:55;;;;;;;;;;;;;;;19.64;60.95;98451.28;5038227;28;2205;-75
2023/11/05 23:05:22;;;;;;;;;;;;;;;19.63;60.86;98449.88;5040410;28;2509;-74
2023/11/05 23:07:48;;;;;;;;;;;;;;;19.64;61.08;98445.56;5041850;28;2211;-75
2023/11/05 23:10:15;;;;;;;;;;;;;;;19.63;60.69;98447.00;5039691;28;2223;-75
2023/11/05 23:12:41;;;;;;;;;;;;;;;19.61;60.96;98469.94;5040648;28;2228;-75
2023/11/05 23:15:08;;;;;;;;;;;;;;;19.61;60.99;98461.31;5040169;28;2351;-75
2023/11/05 23:17:34;;;;;;;;;;;;;;;19.61;60.83;98464.19;5041079;28;2149;-75
2023/11/05 23:20:01;;;;;;;;;;;;;;;19.61;61.06;98469.94;5038462;28;2094;-75
2023/11/05 23:22:28;;;;;;;;;;;;;;;19.61;60.87;98486.44;5039283;28;2175;-75
2023/11/05 23:24:54;;;;;;;;;;;;;;;19.59;60.61;98478.50;5039806;28;2173;-75
2023/11/05 23:27:20;;;;;;;;;;;;;;;19.59;60.81;98487.13;5040369;28;2143;-76
2023/11/05 23:29:47;;;;;;;;;;;;;;;19.58;60.80;98482.78;5041143;28;2016;-75
2023/11/05 23:32:13;;;;;;;;;;;;;;;19.59;60.75;98497.88;5035229;28;6044;-75
2023/11/05 23:34:40;;;;;;;;;;;;;;;19.59;60.80;98501.47;5039800;28;2257;-75
2023/11/05 23:37:07;;;;;;;;;;;;;;;19.59;60.72;98509.38;5040218;28;2392;-75
2023/11/05 23:39:33;;;;;;;;;;;;;;;19.59;60.92;98501.47;5037902;28;2216;-75
2023/11/05 23:41:59;;;;;;;;;;;;;;;19.58;60.62;98511.50;5056190;28;2367;-75
2023/11/05 23:44:26;;;;;;;;;;;;;;;19.59;60.86;98512.25;5037236;28;2294;-75
2023/11/05 23:46:52;;;;;;;;;;;;;;;19.59;60.73;98517.97;5037318;28;2333;-75
2023/11/05 23:49:19;;;;;;;;;;;;;;;19.58;60.73;98517.25;5038796;28;2209;-75
2023/11/05 23:51:45;;;;;;;;;;;;;;;19.58;60.63;98525.84;5039337;28;2271;-76
2023/11/05 23:54:12;;;;;;;;;;;;;;;19.58;60.66;98517.25;5038121;28;2297;-75
2023/11/05 23:56:39;;;;;;;;;;;;;;;19.58;60.76;98522.97;5038059;28;2215;-76
2023/11/05 23:59:05;;;;;;;;;;;;;;;19.57;60.70;98538.78;5040881;28;2251;-75
